Terminal Aerodrome Forecast
Issued by NWS

Home | Current Version | Previous Version | Text Only | Print | Product List | Glossary On
Versions: 1 2 3 4 5 6 7 8 9 10 11 12 13 14 15 16 17 18 19
000
FTAK31 PAFA 300521
TAFAQT
TAF
PAQT 300521Z 3006/3106 07012KT P6SM -DZ OVC009
     FM301000 09015KT 4SM BR OVC003
     FM301200 09016KT 1 1/2SM BR OVC003
     FM302100 11013KT P6SM OVC003=

USA.gov is the U.S. government's official web portal to all federal, state and local government web resources and services.